KRHV

Reid-Hillview of Santa Clara County Airport

San Jose, California, USA
METAR KRHV 230450Z 00000KT 10SM SKC 13/11 A2996 RMK LAST
Observed Flight Rules
Oct-23 @ 04:50 UTC (7 hours ago) Visual Flight Rules
Visibility Clouds
10 miles
  • Clear skies
Temperatures Readings
Current 13°C / 55°F
Dewpoint 11°C / 52°F
Humidity 88%
Altimeter 29.96" Hg
Pressure 1015 hPa
Elevation 41
METAR KRHV 230450Z 00000KT 10SM SKC 13/11 A2996 RMK LAST
Observed Flight Rules
Oct-23 @ 04:50 UTC
(7 hours ago)
VFR
Clouds
  • Clear skies
Temperature Dewpoint
13°C / 55°F 11°C / 52°F
Humidity Altimeter Pressure
88% 29.96" Hg 1015 hPa